sensor_id;sensor_type;location;lat;lon;timestamp;P1;durP1;ratioP1;P2;durP2;ratioP2
52554;SDS011;38455;52.710;6.502;2022-08-25T00:00:45;8.20;;;3.67;;
52554;SDS011;38455;52.710;6.502;2022-08-25T00:03:12;10.60;;;3.28;;
52554;SDS011;38455;52.710;6.502;2022-08-25T00:05:38;4.68;;;3.30;;
52554;SDS011;38455;52.710;6.502;2022-08-25T00:08:04;6.70;;;3.42;;
52554;SDS011;38455;52.710;6.502;2022-08-25T00:10:31;6.72;;;3.10;;
52554;SDS011;38455;52.710;6.502;2022-08-25T00:12:59;8.95;;;3.17;;
52554;SDS011;38455;52.710;6.502;2022-08-25T00:15:26;5.55;;;3.50;;
52554;SDS011;38455;52.710;6.502;2022-08-25T00:17:52;5.25;;;3.05;;
52554;SDS011;38455;52.710;6.502;2022-08-25T00:20:18;9.63;;;3.20;;
52554;SDS011;38455;52.710;6.502;2022-08-25T00:22:44;6.13;;;3.60;;
52554;SDS011;38455;52.710;6.502;2022-08-25T00:25:09;8.40;;;3.50;;
52554;SDS011;38455;52.710;6.502;2022-08-25T00:27:35;4.53;;;2.80;;
52554;SDS011;38455;52.710;6.502;2022-08-25T00:30:01;5.72;;;3.03;;
52554;SDS011;38455;52.710;6.502;2022-08-25T00:32:27;13.73;;;3.45;;
52554;SDS011;38455;52.710;6.502;2022-08-25T00:34:53;5.47;;;3.40;;
52554;SDS011;38455;52.710;6.502;2022-08-25T00:37:19;6.45;;;3.05;;
52554;SDS011;38455;52.710;6.502;2022-08-25T00:39:44;4.00;;;3.00;;
52554;SDS011;38455;52.710;6.502;2022-08-25T00:42:11;5.75;;;2.97;;
52554;SDS011;38455;52.710;6.502;2022-08-25T00:44:37;4.82;;;3.03;;
52554;SDS011;38455;52.710;6.502;2022-08-25T00:47:04;5.30;;;3.00;;
52554;SDS011;38455;52.710;6.502;2022-08-25T00:49:32;4.38;;;2.80;;
52554;SDS011;38455;52.710;6.502;2022-08-25T00:52:10;5.13;;;3.00;;
52554;SDS011;38455;52.710;6.502;2022-08-25T00:54:48;7.97;;;2.92;;
52554;SDS011;38455;52.710;6.502;2022-08-25T00:57:36;5.32;;;3.03;;
52554;SDS011;38455;52.710;6.502;2022-08-25T01:02:39;8.25;;;2.47;;
52554;SDS011;38455;52.710;6.502;2022-08-25T01:05:05;6.22;;;2.67;;
52554;SDS011;38455;52.710;6.502;2022-08-25T01:07:32;5.72;;;2.80;;
52554;SDS011;38455;52.710;6.502;2022-08-25T01:09:57;5.53;;;3.25;;
52554;SDS011;38455;52.710;6.502;2022-08-25T01:12:24;7.15;;;3.28;;
52554;SDS011;38455;52.710;6.502;2022-08-25T01:14:50;5.78;;;2.47;;
52554;SDS011;38455;52.710;6.502;2022-08-25T01:17:17;6.05;;;2.90;;
52554;SDS011;38455;52.710;6.502;2022-08-25T01:19:44;5.20;;;2.45;;
52554;SDS011;38455;52.710;6.502;2022-08-25T01:22:10;3.90;;;2.58;;
52554;SDS011;38455;52.710;6.502;2022-08-25T01:27:47;5.82;;;2.30;;
52554;SDS011;38455;52.710;6.502;2022-08-25T01:30:12;5.40;;;2.70;;
52554;SDS011;38455;52.710;6.502;2022-08-25T01:32:38;7.97;;;2.55;;
52554;SDS011;38455;52.710;6.502;2022-08-25T01:35:05;4.35;;;2.42;;
52554;SDS011;38455;52.710;6.502;2022-08-25T01:37:32;4.15;;;2.15;;
52554;SDS011;38455;52.710;6.502;2022-08-25T01:39:59;4.82;;;2.50;;
52554;SDS011;38455;52.710;6.502;2022-08-25T01:45:18;5.70;;;2.40;;
52554;SDS011;38455;52.710;6.502;2022-08-25T01:47:44;4.22;;;2.30;;
52554;SDS011;38455;52.710;6.502;2022-08-25T01:50:10;3.70;;;2.40;;
52554;SDS011;38455;52.710;6.502;2022-08-25T01:52:49;5.35;;;2.13;;
52554;SDS011;38455;52.710;6.502;2022-08-25T01:55:18;4.13;;;2.08;;
52554;SDS011;38455;52.710;6.502;2022-08-25T01:57:44;7.93;;;2.70;;
52554;SDS011;38455;52.710;6.502;2022-08-25T02:00:10;6.25;;;2.60;;
52554;SDS011;38455;52.710;6.502;2022-08-25T02:02:38;7.65;;;2.50;;
52554;SDS011;38455;52.710;6.502;2022-08-25T02:05:05;5.47;;;2.95;;
52554;SDS011;38455;52.710;6.502;2022-08-25T02:07:31;6.45;;;2.70;;
52554;SDS011;38455;52.710;6.502;2022-08-25T02:09:57;10.98;;;2.50;;
52554;SDS011;38455;52.710;6.502;2022-08-25T02:12:23;7.20;;;2.45;;
52554;SDS011;38455;52.710;6.502;2022-08-25T02:14:49;8.25;;;2.90;;
52554;SDS011;38455;52.710;6.502;2022-08-25T02:17:15;11.85;;;2.88;;
52554;SDS011;38455;52.710;6.502;2022-08-25T02:19:41;4.70;;;2.22;;
52554;SDS011;38455;52.710;6.502;2022-08-25T02:22:07;7.18;;;2.50;;
52554;SDS011;38455;52.710;6.502;2022-08-25T02:24:32;3.78;;;2.28;;
52554;SDS011;38455;52.710;6.502;2022-08-25T02:26:59;4.57;;;2.20;;
52554;SDS011;38455;52.710;6.502;2022-08-25T02:29:24;5.50;;;2.72;;
52554;SDS011;38455;52.710;6.502;2022-08-25T02:31:50;4.57;;;2.33;;
52554;SDS011;38455;52.710;6.502;2022-08-25T02:34:16;7.28;;;2.70;;
52554;SDS011;38455;52.710;6.502;2022-08-25T02:36:42;5.47;;;2.60;;
52554;SDS011;38455;52.710;6.502;2022-08-25T02:39:08;4.35;;;2.10;;
52554;SDS011;38455;52.710;6.502;2022-08-25T02:41:34;7.13;;;2.65;;
52554;SDS011;38455;52.710;6.502;2022-08-25T02:44:01;4.60;;;2.75;;
52554;SDS011;38455;52.710;6.502;2022-08-25T02:46:27;3.75;;;2.40;;
52554;SDS011;38455;52.710;6.502;2022-08-25T02:48:55;5.82;;;2.35;;
52554;SDS011;38455;52.710;6.502;2022-08-25T02:51:21;6.18;;;2.42;;
52554;SDS011;38455;52.710;6.502;2022-08-25T02:53:48;6.07;;;2.70;;
52554;SDS011;38455;52.710;6.502;2022-08-25T02:56:15;4.55;;;2.58;;
52554;SDS011;38455;52.710;6.502;2022-08-25T02:58:42;7.43;;;2.78;;
52554;SDS011;38455;52.710;6.502;2022-08-25T03:01:08;5.72;;;2.70;;
52554;SDS011;38455;52.710;6.502;2022-08-25T03:03:40;5.72;;;2.50;;
52554;SDS011;38455;52.710;6.502;2022-08-25T03:06:08;4.35;;;2.47;;
52554;SDS011;38455;52.710;6.502;2022-08-25T03:08:36;4.82;;;2.65;;
52554;SDS011;38455;52.710;6.502;2022-08-25T03:11:03;11.52;;;3.05;;
52554;SDS011;38455;52.710;6.502;2022-08-25T03:13:29;11.13;;;2.88;;
52554;SDS011;38455;52.710;6.502;2022-08-25T03:15:56;5.88;;;2.50;;
52554;SDS011;38455;52.710;6.502;2022-08-25T03:18:23;4.28;;;2.20;;
52554;SDS011;38455;52.710;6.502;2022-08-25T03:20:48;3.97;;;2.58;;
52554;SDS011;38455;52.710;6.502;2022-08-25T03:23:14;5.05;;;2.38;;
52554;SDS011;38455;52.710;6.502;2022-08-25T03:25:40;7.72;;;2.90;;
52554;SDS011;38455;52.710;6.502;2022-08-25T03:28:24;8.85;;;3.42;;
52554;SDS011;38455;52.710;6.502;2022-08-25T03:30:50;4.28;;;2.30;;
52554;SDS011;38455;52.710;6.502;2022-08-25T03:33:17;7.95;;;2.45;;
52554;SDS011;38455;52.710;6.502;2022-08-25T03:35:43;4.35;;;2.33;;
52554;SDS011;38455;52.710;6.502;2022-08-25T03:38:09;6.80;;;3.15;;
52554;SDS011;38455;52.710;6.502;2022-08-25T03:40:35;5.57;;;2.47;;
52554;SDS011;38455;52.710;6.502;2022-08-25T03:43:02;8.52;;;2.70;;
52554;SDS011;38455;52.710;6.502;2022-08-25T03:45:27;3.58;;;2.30;;
52554;SDS011;38455;52.710;6.502;2022-08-25T03:47:53;8.82;;;2.60;;
52554;SDS011;38455;52.710;6.502;2022-08-25T03:50:20;4.20;;;2.38;;
52554;SDS011;38455;52.710;6.502;2022-08-25T03:52:53;6.63;;;2.40;;
52554;SDS011;38455;52.710;6.502;2022-08-25T03:55:22;4.93;;;3.00;;
52554;SDS011;38455;52.710;6.502;2022-08-25T03:57:49;5.13;;;2.30;;
52554;SDS011;38455;52.710;6.502;2022-08-25T04:00:15;5.45;;;2.63;;
52554;SDS011;38455;52.710;6.502;2022-08-25T04:02:41;5.90;;;2.47;;
52554;SDS011;38455;52.710;6.502;2022-08-25T04:05:07;6.97;;;2.83;;
52554;SDS011;38455;52.710;6.502;2022-08-25T04:07:34;5.60;;;2.17;;
52554;SDS011;38455;52.710;6.502;2022-08-25T04:10:00;3.83;;;2.13;;
52554;SDS011;38455;52.710;6.502;2022-08-25T04:12:25;4.40;;;2.50;;
52554;SDS011;38455;52.710;6.502;2022-08-25T04:14:51;5.22;;;2.67;;
52554;SDS011;38455;52.710;6.502;2022-08-25T04:17:17;6.13;;;2.90;;
52554;SDS011;38455;52.710;6.502;2022-08-25T04:19:43;6.03;;;2.50;;
52554;SDS011;38455;52.710;6.502;2022-08-25T04:22:08;5.57;;;2.40;;
52554;SDS011;38455;52.710;6.502;2022-08-25T04:24:34;7.10;;;3.13;;
52554;SDS011;38455;52.710;6.502;2022-08-25T04:27:00;6.55;;;2.38;;
52554;SDS011;38455;52.710;6.502;2022-08-25T04:29:25;4.28;;;2.60;;
52554;SDS011;38455;52.710;6.502;2022-08-25T04:31:52;4.45;;;2.78;;
52554;SDS011;38455;52.710;6.502;2022-08-25T04:34:20;5.43;;;2.70;;
52554;SDS011;38455;52.710;6.502;2022-08-25T04:36:47;11.07;;;2.90;;
52554;SDS011;38455;52.710;6.502;2022-08-25T04:39:15;4.13;;;2.85;;
52554;SDS011;38455;52.710;6.502;2022-08-25T04:41:44;6.82;;;2.95;;
52554;SDS011;38455;52.710;6.502;2022-08-25T04:44:10;4.95;;;2.70;;
52554;SDS011;38455;52.710;6.502;2022-08-25T04:46:36;3.83;;;2.63;;
52554;SDS011;38455;52.710;6.502;2022-08-25T04:49:02;4.50;;;2.70;;
52554;SDS011;38455;52.710;6.502;2022-08-25T04:51:30;9.48;;;2.72;;
52554;SDS011;38455;52.710;6.502;2022-08-25T04:54:00;4.97;;;2.97;;
52554;SDS011;38455;52.710;6.502;2022-08-25T04:56:29;6.82;;;3.00;;
52554;SDS011;38455;52.710;6.502;2022-08-25T04:59:00;9.23;;;3.25;;
52554;SDS011;38455;52.710;6.502;2022-08-25T05:01:28;5.90;;;2.75;;
52554;SDS011;38455;52.710;6.502;2022-08-25T05:03:56;5.63;;;2.88;;
52554;SDS011;38455;52.710;6.502;2022-08-25T05:06:23;6.63;;;2.75;;
52554;SDS011;38455;52.710;6.502;2022-08-25T05:08:50;11.30;;;2.80;;
52554;SDS011;38455;52.710;6.502;2022-08-25T05:11:17;5.03;;;2.53;;
52554;SDS011;38455;52.710;6.502;2022-08-25T05:13:44;4.75;;;2.90;;
52554;SDS011;38455;52.710;6.502;2022-08-25T05:16:11;4.95;;;2.22;;
52554;SDS011;38455;52.710;6.502;2022-08-25T05:18:37;5.20;;;3.40;;
52554;SDS011;38455;52.710;6.502;2022-08-25T05:21:04;5.32;;;2.60;;
52554;SDS011;38455;52.710;6.502;2022-08-25T05:23:31;5.63;;;3.10;;
52554;SDS011;38455;52.710;6.502;2022-08-25T05:26:00;5.07;;;2.83;;
52554;SDS011;38455;52.710;6.502;2022-08-25T05:28:37;5.57;;;3.00;;
52554;SDS011;38455;52.710;6.502;2022-08-25T05:31:09;5.68;;;3.15;;
52554;SDS011;38455;52.710;6.502;2022-08-25T05:33:36;4.28;;;2.72;;
52554;SDS011;38455;52.710;6.502;2022-08-25T05:36:04;4.78;;;2.85;;
52554;SDS011;38455;52.710;6.502;2022-08-25T05:38:30;8.25;;;2.63;;
52554;SDS011;38455;52.710;6.502;2022-08-25T05:40:56;5.18;;;2.67;;
52554;SDS011;38455;52.710;6.502;2022-08-25T05:43:26;4.63;;;3.00;;
52554;SDS011;38455;52.710;6.502;2022-08-25T05:45:53;10.75;;;2.85;;
52554;SDS011;38455;52.710;6.502;2022-08-25T05:48:20;5.15;;;2.45;;
52554;SDS011;38455;52.710;6.502;2022-08-25T05:50:52;20.20;;;3.25;;
52554;SDS011;38455;52.710;6.502;2022-08-25T05:53:19;4.10;;;2.50;;
52554;SDS011;38455;52.710;6.502;2022-08-25T05:55:47;5.40;;;2.30;;
52554;SDS011;38455;52.710;6.502;2022-08-25T05:58:13;5.18;;;3.10;;
52554;SDS011;38455;52.710;6.502;2022-08-25T06:00:38;9.82;;;2.80;;
52554;SDS011;38455;52.710;6.502;2022-08-25T06:03:04;5.43;;;2.65;;
52554;SDS011;38455;52.710;6.502;2022-08-25T06:05:30;5.68;;;2.47;;
52554;SDS011;38455;52.710;6.502;2022-08-25T06:07:56;8.90;;;2.63;;
52554;SDS011;38455;52.710;6.502;2022-08-25T06:10:23;5.07;;;2.30;;
52554;SDS011;38455;52.710;6.502;2022-08-25T06:12:49;2.97;;;2.13;;
52554;SDS011;38455;52.710;6.502;2022-08-25T06:15:16;6.57;;;2.30;;
52554;SDS011;38455;52.710;6.502;2022-08-25T06:17:45;4.80;;;2.60;;
52554;SDS011;38455;52.710;6.502;2022-08-25T06:20:13;6.70;;;2.78;;
52554;SDS011;38455;52.710;6.502;2022-08-25T06:22:43;6.18;;;2.80;;
52554;SDS011;38455;52.710;6.502;2022-08-25T06:25:10;12.90;;;2.30;;
52554;SDS011;38455;52.710;6.502;2022-08-25T06:27:38;4.38;;;2.22;;
52554;SDS011;38455;52.710;6.502;2022-08-25T06:30:05;5.18;;;2.50;;
52554;SDS011;38455;52.710;6.502;2022-08-25T06:32:34;9.95;;;2.22;;
52554;SDS011;38455;52.710;6.502;2022-08-25T06:35:01;7.18;;;2.20;;
52554;SDS011;38455;52.710;6.502;2022-08-25T06:37:28;5.97;;;2.20;;
52554;SDS011;38455;52.710;6.502;2022-08-25T06:39:53;5.78;;;2.33;;
52554;SDS011;38455;52.710;6.502;2022-08-25T06:42:19;6.20;;;2.53;;
52554;SDS011;38455;52.710;6.502;2022-08-25T06:44:45;3.95;;;2.53;;
52554;SDS011;38455;52.710;6.502;2022-08-25T06:47:10;3.90;;;2.17;;
52554;SDS011;38455;52.710;6.502;2022-08-25T06:49:36;4.65;;;2.70;;
52554;SDS011;38455;52.710;6.502;2022-08-25T06:52:02;5.57;;;2.30;;
52554;SDS011;38455;52.710;6.502;2022-08-25T06:54:28;7.85;;;2.33;;
52554;SDS011;38455;52.710;6.502;2022-08-25T06:56:53;6.10;;;3.13;;
52554;SDS011;38455;52.710;6.502;2022-08-25T06:59:19;4.47;;;2.30;;
52554;SDS011;38455;52.710;6.502;2022-08-25T07:01:45;4.75;;;2.30;;
52554;SDS011;38455;52.710;6.502;2022-08-25T07:04:10;6.47;;;2.40;;
52554;SDS011;38455;52.710;6.502;2022-08-25T07:06:36;4.53;;;2.08;;
52554;SDS011;38455;52.710;6.502;2022-08-25T07:09:03;4.43;;;1.92;;
52554;SDS011;38455;52.710;6.502;2022-08-25T07:11:30;6.15;;;2.17;;
52554;SDS011;38455;52.710;6.502;2022-08-25T07:13:58;5.28;;;2.08;;
52554;SDS011;38455;52.710;6.502;2022-08-25T07:16:25;6.53;;;2.65;;
52554;SDS011;38455;52.710;6.502;2022-08-25T07:18:52;3.28;;;2.25;;
52554;SDS011;38455;52.710;6.502;2022-08-25T07:21:20;4.45;;;2.30;;
52554;SDS011;38455;52.710;6.502;2022-08-25T07:23:49;5.72;;;2.33;;
52554;SDS011;38455;52.710;6.502;2022-08-25T07:26:20;4.97;;;2.22;;
52554;SDS011;38455;52.710;6.502;2022-08-25T07:28:48;5.95;;;2.40;;
52554;SDS011;38455;52.710;6.502;2022-08-25T07:31:14;5.80;;;2.67;;
52554;SDS011;38455;52.710;6.502;2022-08-25T07:33:39;4.95;;;2.45;;
52554;SDS011;38455;52.710;6.502;2022-08-25T07:36:25;6.50;;;2.55;;
52554;SDS011;38455;52.710;6.502;2022-08-25T07:38:51;5.20;;;2.55;;
52554;SDS011;38455;52.710;6.502;2022-08-25T07:41:17;5.35;;;2.10;;
52554;SDS011;38455;52.710;6.502;2022-08-25T07:43:42;4.68;;;2.30;;
52554;SDS011;38455;52.710;6.502;2022-08-25T07:46:08;5.57;;;2.30;;
52554;SDS011;38455;52.710;6.502;2022-08-25T07:48:34;6.07;;;2.20;;
52554;SDS011;38455;52.710;6.502;2022-08-25T07:51:05;5.80;;;1.90;;
52554;SDS011;38455;52.710;6.502;2022-08-25T07:53:32;5.82;;;2.30;;
52554;SDS011;38455;52.710;6.502;2022-08-25T07:55:58;6.57;;;2.00;;
52554;SDS011;38455;52.710;6.502;2022-08-25T07:58:23;6.68;;;2.38;;
52554;SDS011;38455;52.710;6.502;2022-08-25T08:00:49;7.45;;;2.80;;
52554;SDS011;38455;52.710;6.502;2022-08-25T08:03:17;6.65;;;2.55;;
52554;SDS011;38455;52.710;6.502;2022-08-25T08:05:42;5.72;;;2.55;;
52554;SDS011;38455;52.710;6.502;2022-08-25T08:08:08;5.88;;;2.30;;
52554;SDS011;38455;52.710;6.502;2022-08-25T08:10:34;7.75;;;2.33;;
52554;SDS011;38455;52.710;6.502;2022-08-25T08:13:02;3.50;;;2.33;;
52554;SDS011;38455;52.710;6.502;2022-08-25T08:15:28;7.88;;;2.60;;
52554;SDS011;38455;52.710;6.502;2022-08-25T08:17:53;4.68;;;2.20;;
52554;SDS011;38455;52.710;6.502;2022-08-25T08:20:19;3.05;;;1.90;;
52554;SDS011;38455;52.710;6.502;2022-08-25T08:22:45;6.72;;;2.45;;
52554;SDS011;38455;52.710;6.502;2022-08-25T08:25:11;4.07;;;2.20;;
52554;SDS011;38455;52.710;6.502;2022-08-25T08:27:37;3.60;;;2.05;;
52554;SDS011;38455;52.710;6.502;2022-08-25T08:30:04;4.55;;;2.00;;
52554;SDS011;38455;52.710;6.502;2022-08-25T08:32:30;7.18;;;2.30;;
52554;SDS011;38455;52.710;6.502;2022-08-25T08:34:56;9.38;;;2.70;;
52554;SDS011;38455;52.710;6.502;2022-08-25T08:37:21;4.65;;;1.90;;
52554;SDS011;38455;52.710;6.502;2022-08-25T08:39:47;6.18;;;1.90;;
52554;SDS011;38455;52.710;6.502;2022-08-25T08:55:34;6.35;;;2.10;;
52554;SDS011;38455;52.710;6.502;2022-08-25T08:58:09;5.85;;;1.95;;
52554;SDS011;38455;52.710;6.502;2022-08-25T09:00:38;3.67;;;1.88;;
52554;SDS011;38455;52.710;6.502;2022-08-25T09:03:29;6.90;;;1.83;;
52554;SDS011;38455;52.710;6.502;2022-08-25T09:06:04;5.85;;;1.88;;
52554;SDS011;38455;52.710;6.502;2022-08-25T09:08:37;4.10;;;1.95;;
52554;SDS011;38455;52.710;6.502;2022-08-25T09:27:40;7.90;;;2.15;;
52554;SDS011;38455;52.710;6.502;2022-08-25T09:30:23;3.20;;;1.40;;
52554;SDS011;38455;52.710;6.502;2022-08-25T09:32:50;2.20;;;1.70;;
52554;SDS011;38455;52.710;6.502;2022-08-25T09:35:25;4.68;;;1.55;;
52554;SDS011;38455;52.710;6.502;2022-08-25T09:37:54;6.65;;;1.70;;
52554;SDS011;38455;52.710;6.502;2022-08-25T09:40:21;6.45;;;1.80;;
52554;SDS011;38455;52.710;6.502;2022-08-25T09:42:50;4.88;;;1.92;;
52554;SDS011;38455;52.710;6.502;2022-08-25T09:50:58;2.55;;;1.50;;
52554;SDS011;38455;52.710;6.502;2022-08-25T09:53:32;2.45;;;1.65;;
52554;SDS011;38455;52.710;6.502;2022-08-25T09:56:02;5.18;;;1.90;;
52554;SDS011;38455;52.710;6.502;2022-08-25T09:58:29;5.20;;;1.50;;
52554;SDS011;38455;52.710;6.502;2022-08-25T10:01:10;3.10;;;1.50;;
52554;SDS011;38455;52.710;6.502;2022-08-25T10:03:51;3.38;;;1.67;;
52554;SDS011;38455;52.710;6.502;2022-08-25T10:06:20;2.67;;;1.65;;
52554;SDS011;38455;52.710;6.502;2022-08-25T10:11:27;3.72;;;1.50;;
52554;SDS011;38455;52.710;6.502;2022-08-25T10:14:47;4.03;;;1.60;;
52554;SDS011;38455;52.710;6.502;2022-08-25T10:19:52;4.97;;;1.80;;
52554;SDS011;38455;52.710;6.502;2022-08-25T10:22:40;2.22;;;1.42;;
52554;SDS011;38455;52.710;6.502;2022-08-25T10:25:07;2.67;;;1.70;;
52554;SDS011;38455;52.710;6.502;2022-08-25T10:30:47;2.58;;;1.67;;
52554;SDS011;38455;52.710;6.502;2022-08-25T10:38:49;4.05;;;1.92;;
52554;SDS011;38455;52.710;6.502;2022-08-25T10:44:12;6.07;;;2.17;;
52554;SDS011;38455;52.710;6.502;2022-08-25T10:50:00;2.53;;;1.42;;
52554;SDS011;38455;52.710;6.502;2022-08-25T10:55:17;3.67;;;1.70;;
52554;SDS011;38455;52.710;6.502;2022-08-25T10:57:54;2.75;;;1.45;;
52554;SDS011;38455;52.710;6.502;2022-08-25T11:00:33;2.78;;;1.52;;
52554;SDS011;38455;52.710;6.502;2022-08-25T11:05:46;4.60;;;1.50;;
52554;SDS011;38455;52.710;6.502;2022-08-25T11:11:11;2.40;;;1.10;;
52554;SDS011;38455;52.710;6.502;2022-08-25T11:14:15;2.97;;;1.30;;
52554;SDS011;38455;52.710;6.502;2022-08-25T11:16:58;4.63;;;1.17;;
52554;SDS011;38455;52.710;6.502;2022-08-25T11:19:49;4.13;;;1.30;;
52554;SDS011;38455;52.710;6.502;2022-08-25T11:22:25;4.13;;;1.70;;
52554;SDS011;38455;52.710;6.502;2022-08-25T11:25:17;2.60;;;1.20;;
52554;SDS011;38455;52.710;6.502;2022-08-25T11:30:22;5.65;;;1.33;;
52554;SDS011;38455;52.710;6.502;2022-08-25T11:32:49;3.17;;;1.27;;
52554;SDS011;38455;52.710;6.502;2022-08-25T11:35:17;3.53;;;1.60;;
52554;SDS011;38455;52.710;6.502;2022-08-25T11:40:37;3.10;;;1.10;;
52554;SDS011;38455;52.710;6.502;2022-08-25T11:46:13;3.67;;;1.70;;
52554;SDS011;38455;52.710;6.502;2022-08-25T11:48:59;1.88;;;1.50;;
52554;SDS011;38455;52.710;6.502;2022-08-25T11:51:53;3.35;;;1.05;;
52554;SDS011;38455;52.710;6.502;2022-08-25T11:57:02;2.92;;;1.55;;
52554;SDS011;38455;52.710;6.502;2022-08-25T12:08:03;1.38;;;1.02;;
52554;SDS011;38455;52.710;6.502;2022-08-25T12:13:41;7.68;;;1.17;;
52554;SDS011;38455;52.710;6.502;2022-08-25T12:16:30;1.27;;;0.90;;
52554;SDS011;38455;52.710;6.502;2022-08-25T12:21:47;4.75;;;1.40;;
52554;SDS011;38455;52.710;6.502;2022-08-25T12:24:14;2.17;;;1.38;;
52554;SDS011;38455;52.710;6.502;2022-08-25T12:29:33;3.97;;;1.15;;
52554;SDS011;38455;52.710;6.502;2022-08-25T12:37:19;5.95;;;1.27;;
52554;SDS011;38455;52.710;6.502;2022-08-25T12:47:50;1.65;;;1.30;;
52554;SDS011;38455;52.710;6.502;2022-08-25T12:50:27;3.25;;;1.40;;
52554;SDS011;38455;52.710;6.502;2022-08-25T12:53:06;2.13;;;1.35;;
52554;SDS011;38455;52.710;6.502;2022-08-25T12:55:41;5.45;;;1.63;;
52554;SDS011;38455;52.710;6.502;2022-08-25T12:58:16;1.80;;;1.20;;
52554;SDS011;38455;52.710;6.502;2022-08-25T13:03:42;1.10;;;0.82;;
52554;SDS011;38455;52.710;6.502;2022-08-25T13:06:35;1.95;;;0.90;;
52554;SDS011;38455;52.710;6.502;2022-08-25T13:12:36;3.70;;;1.33;;
52554;SDS011;38455;52.710;6.502;2022-08-25T13:15:14;2.92;;;1.17;;
52554;SDS011;38455;52.710;6.502;2022-08-25T13:20:41;5.45;;;1.50;;
52554;SDS011;38455;52.710;6.502;2022-08-25T13:23:07;3.60;;;1.58;;
52554;SDS011;38455;52.710;6.502;2022-08-25T13:25:32;2.75;;;1.50;;
52554;SDS011;38455;52.710;6.502;2022-08-25T13:28:00;3.45;;;1.73;;
52554;SDS011;38455;52.710;6.502;2022-08-25T13:30:30;4.18;;;1.80;;
52554;SDS011;38455;52.710;6.502;2022-08-25T13:32:57;4.13;;;1.30;;
52554;SDS011;38455;52.710;6.502;2022-08-25T13:35:26;4.50;;;1.70;;
52554;SDS011;38455;52.710;6.502;2022-08-25T13:38:10;3.70;;;1.52;;
52554;SDS011;38455;52.710;6.502;2022-08-25T13:40:37;3.20;;;1.40;;
52554;SDS011;38455;52.710;6.502;2022-08-25T13:43:05;2.92;;;1.52;;
52554;SDS011;38455;52.710;6.502;2022-08-25T13:45:37;4.05;;;1.92;;
52554;SDS011;38455;52.710;6.502;2022-08-25T13:48:05;3.67;;;1.75;;
52554;SDS011;38455;52.710;6.502;2022-08-25T13:50:35;4.55;;;1.98;;
52554;SDS011;38455;52.710;6.502;2022-08-25T13:58:11;5.20;;;1.38;;
52554;SDS011;38455;52.710;6.502;2022-08-25T14:00:44;2.45;;;1.60;;
52554;SDS011;38455;52.710;6.502;2022-08-25T14:03:32;2.70;;;1.55;;
52554;SDS011;38455;52.710;6.502;2022-08-25T14:08:39;5.55;;;2.05;;
52554;SDS011;38455;52.710;6.502;2022-08-25T14:13:35;8.65;;;1.85;;
52554;SDS011;38455;52.710;6.502;2022-08-25T14:16:06;3.28;;;1.40;;
52554;SDS011;38455;52.710;6.502;2022-08-25T14:18:32;4.05;;;1.50;;
52554;SDS011;38455;52.710;6.502;2022-08-25T14:20:58;3.05;;;1.60;;
52554;SDS011;38455;52.710;6.502;2022-08-25T14:23:26;6.97;;;2.20;;
52554;SDS011;38455;52.710;6.502;2022-08-25T14:25:54;3.70;;;1.77;;
52554;SDS011;38455;52.710;6.502;2022-08-25T14:28:23;3.33;;;2.28;;
52554;SDS011;38455;52.710;6.502;2022-08-25T14:30:52;6.50;;;2.08;;
52554;SDS011;38455;52.710;6.502;2022-08-25T14:33:21;3.92;;;1.88;;
52554;SDS011;38455;52.710;6.502;2022-08-25T14:35:51;5.97;;;1.95;;
52554;SDS011;38455;52.710;6.502;2022-08-25T14:38:19;6.65;;;2.50;;
52554;SDS011;38455;52.710;6.502;2022-08-25T14:40:45;4.90;;;2.17;;
52554;SDS011;38455;52.710;6.502;2022-08-25T14:43:12;5.53;;;1.95;;
52554;SDS011;38455;52.710;6.502;2022-08-25T14:45:39;4.60;;;1.85;;
52554;SDS011;38455;52.710;6.502;2022-08-25T14:48:07;5.85;;;2.10;;
52554;SDS011;38455;52.710;6.502;2022-08-25T14:50:36;6.25;;;2.10;;
52554;SDS011;38455;52.710;6.502;2022-08-25T14:53:03;6.15;;;2.17;;
52554;SDS011;38455;52.710;6.502;2022-08-25T14:55:29;3.25;;;2.00;;
52554;SDS011;38455;52.710;6.502;2022-08-25T14:57:55;4.10;;;2.10;;
52554;SDS011;38455;52.710;6.502;2022-08-25T15:00:21;4.38;;;2.42;;
52554;SDS011;38455;52.710;6.502;2022-08-25T15:02:47;3.60;;;2.05;;
52554;SDS011;38455;52.710;6.502;2022-08-25T15:05:19;4.43;;;2.00;;
52554;SDS011;38455;52.710;6.502;2022-08-25T15:07:49;4.97;;;2.30;;
52554;SDS011;38455;52.710;6.502;2022-08-25T15:10:34;4.70;;;2.05;;
52554;SDS011;38455;52.710;6.502;2022-08-25T15:13:00;3.30;;;2.10;;
52554;SDS011;38455;52.710;6.502;2022-08-25T15:15:25;5.03;;;2.15;;
52554;SDS011;38455;52.710;6.502;2022-08-25T15:17:52;3.80;;;2.38;;
52554;SDS011;38455;52.710;6.502;2022-08-25T15:20:18;3.80;;;1.98;;
52554;SDS011;38455;52.710;6.502;2022-08-25T15:22:44;4.03;;;1.92;;
52554;SDS011;38455;52.710;6.502;2022-08-25T15:25:12;4.07;;;2.47;;
52554;SDS011;38455;52.710;6.502;2022-08-25T15:27:38;3.35;;;1.83;;
52554;SDS011;38455;52.710;6.502;2022-08-25T15:30:04;6.32;;;2.50;;
52554;SDS011;38455;52.710;6.502;2022-08-25T15:32:30;3.42;;;2.33;;
52554;SDS011;38455;52.710;6.502;2022-08-25T15:34:56;8.50;;;2.78;;
52554;SDS011;38455;52.710;6.502;2022-08-25T15:37:22;3.22;;;1.90;;
52554;SDS011;38455;52.710;6.502;2022-08-25T15:39:47;4.25;;;2.00;;
52554;SDS011;38455;52.710;6.502;2022-08-25T15:42:13;5.13;;;1.77;;
52554;SDS011;38455;52.710;6.502;2022-08-25T15:44:40;5.60;;;2.47;;
52554;SDS011;38455;52.710;6.502;2022-08-25T15:47:07;3.72;;;2.22;;
52554;SDS011;38455;52.710;6.502;2022-08-25T15:49:33;5.43;;;2.42;;
52554;SDS011;38455;52.710;6.502;2022-08-25T15:51:59;4.57;;;2.50;;
52554;SDS011;38455;52.710;6.502;2022-08-25T15:54:25;3.63;;;1.90;;
52554;SDS011;38455;52.710;6.502;2022-08-25T15:56:52;3.97;;;2.50;;
52554;SDS011;38455;52.710;6.502;2022-08-25T15:59:19;6.20;;;2.42;;
52554;SDS011;38455;52.710;6.502;2022-08-25T16:01:44;13.30;;;2.72;;
52554;SDS011;38455;52.710;6.502;2022-08-25T16:04:10;4.80;;;2.53;;
52554;SDS011;38455;52.710;6.502;2022-08-25T16:06:36;3.60;;;2.22;;
52554;SDS011;38455;52.710;6.502;2022-08-25T16:09:03;5.50;;;1.95;;
52554;SDS011;38455;52.710;6.502;2022-08-25T16:11:30;6.05;;;2.50;;
52554;SDS011;38455;52.710;6.502;2022-08-25T16:13:59;5.72;;;2.25;;
52554;SDS011;38455;52.710;6.502;2022-08-25T16:16:26;5.78;;;2.47;;
52554;SDS011;38455;52.710;6.502;2022-08-25T16:18:53;3.40;;;2.05;;
52554;SDS011;38455;52.710;6.502;2022-08-25T16:21:31;3.80;;;2.10;;
52554;SDS011;38455;52.710;6.502;2022-08-25T16:24:00;3.78;;;2.28;;
52554;SDS011;38455;52.710;6.502;2022-08-25T16:26:28;7.15;;;2.33;;
52554;SDS011;38455;52.710;6.502;2022-08-25T16:28:55;4.55;;;2.30;;
52554;SDS011;38455;52.710;6.502;2022-08-25T16:31:21;3.88;;;2.38;;
52554;SDS011;38455;52.710;6.502;2022-08-25T16:33:47;4.18;;;2.47;;
52554;SDS011;38455;52.710;6.502;2022-08-25T16:36:14;5.03;;;2.40;;
52554;SDS011;38455;52.710;6.502;2022-08-25T16:38:42;7.75;;;2.75;;
52554;SDS011;38455;52.710;6.502;2022-08-25T16:41:10;4.35;;;2.55;;
52554;SDS011;38455;52.710;6.502;2022-08-25T16:43:38;4.40;;;2.60;;
52554;SDS011;38455;52.710;6.502;2022-08-25T16:46:05;8.30;;;2.53;;
52554;SDS011;38455;52.710;6.502;2022-08-25T16:48:33;15.57;;;3.05;;
52554;SDS011;38455;52.710;6.502;2022-08-25T16:50:58;3.97;;;2.55;;
52554;SDS011;38455;52.710;6.502;2022-08-25T16:53:24;4.85;;;2.45;;
52554;SDS011;38455;52.710;6.502;2022-08-25T16:56:09;5.82;;;2.55;;
52554;SDS011;38455;52.710;6.502;2022-08-25T16:58:35;7.47;;;2.58;;
52554;SDS011;38455;52.710;6.502;2022-08-25T17:01:05;5.30;;;2.50;;
52554;SDS011;38455;52.710;6.502;2022-08-25T17:03:33;7.95;;;2.50;;
52554;SDS011;38455;52.710;6.502;2022-08-25T17:06:00;3.13;;;2.30;;
52554;SDS011;38455;52.710;6.502;2022-08-25T17:08:26;5.28;;;2.20;;
52554;SDS011;38455;52.710;6.502;2022-08-25T17:10:53;4.85;;;2.60;;